createdAt,value
2018-03-18T00:00:03.272Z,16.40
2018-03-18T00:00:35.764Z,16.40
2018-03-18T00:01:07.514Z,16.40
2018-03-18T00:01:39.983Z,16.40
2018-03-18T00:02:11.706Z,16.40
2018-03-18T00:02:43.428Z,16.40
2018-03-18T00:03:15.923Z,16.40
2018-03-18T00:03:47.656Z,16.40
2018-03-18T00:04:19.392Z,16.40
2018-03-18T00:04:51.889Z,16.40
2018-03-18T00:05:23.616Z,16.40
2018-03-18T00:05:55.438Z,16.40
2018-03-18T00:06:27.934Z,16.40
2018-03-18T00:06:59.652Z,16.40
2018-03-18T00:07:32.135Z,16.40
2018-03-18T00:08:03.860Z,16.40
2018-03-18T00:08:35.577Z,16.40
2018-03-18T00:09:07.308Z,16.40
2018-03-18T00:09:39.029Z,16.40
2018-03-18T00:10:10.754Z,16.40
2018-03-18T00:10:42.471Z,16.40
2018-03-18T00:11:14.969Z,16.40
2018-03-18T00:11:46.697Z,16.40
2018-03-18T00:12:18.424Z,16.40
2018-03-18T00:12:50.909Z,16.40
2018-03-18T00:13:22.633Z,16.40
2018-03-18T00:13:55.116Z,16.40
2018-03-18T00:14:26.845Z,16.40
2018-03-18T00:14:58.573Z,16.40
2018-03-18T00:15:30.488Z,16.40
2018-03-18T00:16:02.219Z,16.40
2018-03-18T00:16:33.948Z,16.40
2018-03-18T00:17:05.690Z,16.40
2018-03-18T00:17:37.397Z,16.50
2018-03-18T00:18:09.876Z,16.50
2018-03-18T00:18:41.601Z,16.50
2018-03-18T00:19:14.102Z,16.50
2018-03-18T00:19:45.824Z,16.50
2018-03-18T00:20:17.625Z,16.50
2018-03-18T00:20:49.366Z,16.50
2018-03-18T00:21:21.086Z,16.70
2018-03-18T00:21:52.808Z,16.50
2018-03-18T00:22:24.548Z,16.50
2018-03-18T00:22:56.287Z,16.40
2018-03-18T00:23:28.771Z,16.50
2018-03-18T00:24:00.505Z,16.40
2018-03-18T00:24:32.259Z,16.40
2018-03-18T00:25:03.988Z,16.40
2018-03-18T00:25:35.721Z,16.40
2018-03-18T00:26:08.243Z,16.40
2018-03-18T00:26:39.933Z,16.40
2018-03-18T00:27:11.657Z,16.40
2018-03-18T00:27:44.143Z,16.40
2018-03-18T00:28:15.897Z,16.40
2018-03-18T00:28:48.405Z,16.40
2018-03-18T00:29:20.146Z,16.40
2018-03-18T00:29:51.892Z,16.40
2018-03-18T00:30:23.633Z,16.40
2018-03-18T00:30:55.346Z,16.40
2018-03-18T00:31:27.065Z,16.40
2018-03-18T00:31:58.799Z,16.40
2018-03-18T00:32:31.292Z,16.40
2018-03-18T00:33:03.048Z,16.40
2018-03-18T00:33:34.769Z,16.40
2018-03-18T00:34:06.521Z,16.40
2018-03-18T00:34:38.241Z,16.40
2018-03-18T00:35:10.727Z,16.50
2018-03-18T00:35:42.456Z,16.40
2018-03-18T00:36:14.186Z,16.40
2018-03-18T00:36:46.689Z,16.40
2018-03-18T00:37:18.412Z,16.40
2018-03-18T00:37:50.136Z,16.40
2018-03-18T00:38:22.628Z,16.40
2018-03-18T00:38:54.405Z,16.40
2018-03-18T00:39:26.117Z,16.40
2018-03-18T00:39:57.848Z,16.40
2018-03-18T00:40:29.570Z,16.40
2018-03-18T00:41:02.047Z,16.40
2018-03-18T00:41:33.768Z,16.40
2018-03-18T00:42:05.496Z,16.40
2018-03-18T00:42:37.222Z,16.40
2018-03-18T00:43:08.946Z,16.40
2018-03-18T00:43:40.669Z,16.40
2018-03-18T00:44:12.407Z,16.40
2018-03-18T00:44:44.911Z,16.40
2018-03-18T00:45:16.640Z,16.40
2018-03-18T00:45:48.363Z,16.40
2018-03-18T00:46:20.112Z,16.40
2018-03-18T00:46:51.827Z,16.40
2018-03-18T00:47:24.330Z,16.40
2018-03-18T00:47:56.095Z,16.40
2018-03-18T00:48:27.817Z,16.40
2018-03-18T00:48:59.546Z,16.40
2018-03-18T00:49:31.289Z,16.40
2018-03-18T00:50:03.008Z,16.40
2018-03-18T00:50:34.732Z,16.40
2018-03-18T00:51:06.452Z,16.40
2018-03-18T00:51:38.190Z,16.40
2018-03-18T00:52:09.937Z,16.40
2018-03-18T00:52:41.662Z,16.40
2018-03-18T00:53:13.388Z,16.40
2018-03-18T00:53:45.897Z,16.40
2018-03-18T00:54:17.654Z,16.40
2018-03-18T00:54:49.439Z,16.40
2018-03-18T00:55:21.234Z,16.40
2018-03-18T00:55:52.988Z,16.40
2018-03-18T00:56:24.677Z,16.40
2018-03-18T00:56:56.404Z,16.40
2018-03-18T00:57:28.130Z,16.40
2018-03-18T00:57:59.851Z,16.40
2018-03-18T00:58:31.636Z,16.40
2018-03-18T00:59:03.320Z,16.50
2018-03-18T00:59:35.205Z,16.40
2018-03-18T01:00:06.978Z,16.40
2018-03-18T01:00:38.705Z,16.40
2018-03-18T01:01:10.481Z,16.40
2018-03-18T01:01:42.200Z,16.50
2018-03-18T01:02:13.925Z,16.50
2018-03-18T01:02:45.651Z,16.50
2018-03-18T01:03:17.377Z,16.50
2018-03-18T01:03:49.126Z,16.40
2018-03-18T01:04:20.840Z,16.40
2018-03-18T01:04:53.338Z,16.40
2018-03-18T01:05:25.106Z,16.40
2018-03-18T01:05:56.842Z,16.40
2018-03-18T01:06:28.572Z,16.40
2018-03-18T01:07:00.300Z,16.50
2018-03-18T01:07:32.023Z,16.40
2018-03-18T01:08:04.527Z,16.40
2018-03-18T01:08:36.256Z,16.40
2018-03-18T01:09:08.071Z,16.40
2018-03-18T01:09:39.814Z,16.40
2018-03-18T01:10:11.624Z,16.40
2018-03-18T01:10:43.375Z,16.40
2018-03-18T01:11:15.090Z,16.40
2018-03-18T01:11:46.818Z,16.40
2018-03-18T01:12:18.584Z,16.40
2018-03-18T01:12:50.312Z,16.40
2018-03-18T01:13:22.033Z,16.40
2018-03-18T01:13:53.759Z,16.40
2018-03-18T01:14:25.480Z,16.40
2018-03-18T01:14:57.219Z,16.40
2018-03-18T01:15:28.960Z,16.40
2018-03-18T01:16:00.689Z,16.40
2018-03-18T01:16:32.413Z,16.40
2018-03-18T01:17:04.133Z,16.40
2018-03-18T01:17:36.630Z,16.40
2018-03-18T01:18:08.337Z,16.40
2018-03-18T01:18:40.912Z,16.40
2018-03-18T01:19:13.396Z,16.40
2018-03-18T01:19:45.153Z,16.40
2018-03-18T01:20:16.873Z,16.40
2018-03-18T01:20:48.596Z,16.40
2018-03-18T01:21:21.102Z,16.40
2018-03-18T01:21:52.817Z,16.40
2018-03-18T01:22:24.540Z,16.40
2018-03-18T01:22:57.039Z,16.40
2018-03-18T01:23:28.776Z,16.40
2018-03-18T01:24:00.488Z,16.40
2018-03-18T01:24:32.982Z,16.40
2018-03-18T01:25:04.718Z,16.40
2018-03-18T01:25:36.444Z,16.40
2018-03-18T01:26:08.930Z,16.40
2018-03-18T01:26:40.642Z,16.40
2018-03-18T01:27:13.130Z,16.40
2018-03-18T01:27:44.852Z,16.40
2018-03-18T01:28:17.364Z,16.40
2018-03-18T01:28:49.082Z,16.40
2018-03-18T01:29:20.866Z,16.40
2018-03-18T01:29:52.619Z,16.40
2018-03-18T01:30:24.367Z,16.40
2018-03-18T01:30:56.097Z,16.40
2018-03-18T01:31:27.839Z,16.40
2018-03-18T01:31:59.565Z,16.40
2018-03-18T01:32:31.292Z,16.40
2018-03-18T01:33:03.054Z,16.40
2018-03-18T01:33:34.756Z,16.40
2018-03-18T01:34:07.261Z,16.40
2018-03-18T01:34:38.985Z,16.40
2018-03-18T01:35:10.696Z,16.40
2018-03-18T01:35:42.428Z,16.40
2018-03-18T01:36:14.168Z,16.40
2018-03-18T01:36:45.888Z,16.40
2018-03-18T01:37:17.611Z,16.40
2018-03-18T01:37:49.394Z,16.40
2018-03-18T01:38:21.098Z,16.40
2018-03-18T01:38:52.809Z,16.40
2018-03-18T01:39:24.542Z,16.40
2018-03-18T01:39:56.265Z,16.40
2018-03-18T01:40:28.030Z,16.40
2018-03-18T01:40:59.765Z,16.40
2018-03-18T01:41:31.481Z,16.40
2018-03-18T01:42:03.214Z,16.40
2018-03-18T01:42:34.953Z,16.40
2018-03-18T01:43:06.681Z,16.40
2018-03-18T01:43:39.158Z,16.40
2018-03-18T01:44:10.888Z,16.40
2018-03-18T01:44:42.624Z,16.40
2018-03-18T01:45:15.122Z,16.40
2018-03-18T01:45:46.847Z,16.40
2018-03-18T01:46:18.591Z,16.40
2018-03-18T01:46:50.326Z,16.40
2018-03-18T01:47:22.828Z,16.40
2018-03-18T01:47:54.545Z,16.40
2018-03-18T01:48:26.270Z,16.40
2018-03-18T01:48:58.752Z,16.40
2018-03-18T01:49:30.480Z,16.40
2018-03-18T01:50:02.207Z,16.40
2018-03-18T01:50:33.928Z,16.40
2018-03-18T01:51:05.667Z,16.40
2018-03-18T01:51:37.431Z,16.40
2018-03-18T01:52:09.156Z,16.40
2018-03-18T01:52:40.887Z,16.40
2018-03-18T01:53:12.616Z,16.40
2018-03-18T01:53:44.352Z,16.40
2018-03-18T01:54:16.084Z,16.40
2018-03-18T01:54:47.834Z,16.40
2018-03-18T01:55:20.317Z,16.40
2018-03-18T01:55:52.068Z,16.40
2018-03-18T01:56:23.784Z,16.40
2018-03-18T01:56:55.503Z,16.40
2018-03-18T01:57:27.996Z,16.40
2018-03-18T01:57:59.744Z,16.30
2018-03-18T01:58:31.467Z,16.40
2018-03-18T01:59:03.193Z,16.40
2018-03-18T01:59:34.905Z,16.40
2018-03-18T02:00:06.640Z,16.40
2018-03-18T02:00:38.348Z,16.40
2018-03-18T02:01:10.095Z,16.40
2018-03-18T02:01:41.851Z,16.40
2018-03-18T02:02:13.597Z,16.40
2018-03-18T02:02:45.331Z,16.40
2018-03-18T02:03:17.805Z,16.40
2018-03-18T02:03:49.567Z,16.40
2018-03-18T02:04:21.304Z,16.40
2018-03-18T02:04:53.027Z,16.40
2018-03-18T02:05:24.751Z,16.40
2018-03-18T02:05:57.278Z,16.40
2018-03-18T02:06:28.999Z,16.40
2018-03-18T02:07:00.731Z,16.40
2018-03-18T02:07:32.456Z,16.40
2018-03-18T02:08:04.221Z,16.40
2018-03-18T02:08:35.927Z,16.40
2018-03-18T02:09:07.659Z,16.40
2018-03-18T02:09:39.395Z,16.40
2018-03-18T02:10:11.130Z,16.40
2018-03-18T02:10:42.839Z,16.40
2018-03-18T02:11:14.559Z,16.40
2018-03-18T02:11:47.036Z,16.40
2018-03-18T02:12:18.780Z,16.40
2018-03-18T02:12:50.504Z,16.40
2018-03-18T02:13:22.991Z,16.40
2018-03-18T02:13:54.721Z,16.40
2018-03-18T02:14:27.200Z,16.40
2018-03-18T02:14:58.933Z,16.40
2018-03-18T02:15:30.679Z,16.40
2018-03-18T02:16:02.410Z,16.40
2018-03-18T02:16:34.943Z,16.40
2018-03-18T02:17:06.668Z,16.40
2018-03-18T02:17:38.443Z,16.40
2018-03-18T02:18:10.172Z,16.40
2018-03-18T02:18:41.900Z,16.40
2018-03-18T02:19:13.639Z,16.40
2018-03-18T02:19:45.362Z,16.40
2018-03-18T02:20:17.096Z,16.40
2018-03-18T02:20:48.817Z,16.40
2018-03-18T02:21:21.335Z,16.30
2018-03-18T02:21:53.066Z,16.40
2018-03-18T02:22:24.791Z,16.40
2018-03-18T02:22:56.538Z,16.40
2018-03-18T02:23:28.279Z,16.40
2018-03-18T02:24:00.042Z,16.40
2018-03-18T02:24:31.800Z,16.40
2018-03-18T02:25:03.504Z,16.30
2018-03-18T02:25:35.224Z,16.30
2018-03-18T02:26:06.953Z,16.30
2018-03-18T02:26:38.676Z,16.30
2018-03-18T02:27:10.400Z,16.40
2018-03-18T02:27:42.145Z,16.30
2018-03-18T02:28:13.856Z,16.30
2018-03-18T02:28:46.344Z,16.30
2018-03-18T02:29:18.083Z,16.30
2018-03-18T02:29:49.827Z,16.30
2018-03-18T02:30:21.601Z,16.30
2018-03-18T02:30:53.346Z,16.30
2018-03-18T02:31:25.064Z,16.30
2018-03-18T02:31:56.797Z,16.30
2018-03-18T02:32:28.526Z,16.30
2018-03-18T02:33:01.031Z,16.30
2018-03-18T02:33:32.761Z,16.30
2018-03-18T02:34:04.502Z,16.30
2018-03-18T02:34:36.289Z,16.40
2018-03-18T02:35:08.036Z,16.30
2018-03-18T02:35:39.761Z,16.30
2018-03-18T02:36:11.512Z,16.30
2018-03-18T02:36:43.214Z,16.30
2018-03-18T02:37:14.951Z,16.30
2018-03-18T02:37:47.425Z,16.30
2018-03-18T02:38:19.160Z,16.30
2018-03-18T02:38:51.655Z,16.30
2018-03-18T02:39:23.372Z,16.40
2018-03-18T02:39:55.105Z,16.40
2018-03-18T02:40:26.838Z,16.40
2018-03-18T02:40:58.568Z,16.30
2018-03-18T02:41:30.299Z,16.30
2018-03-18T02:42:02.029Z,16.30
2018-03-18T02:42:33.758Z,16.30
2018-03-18T02:43:05.507Z,16.30
2018-03-18T02:43:37.235Z,16.30
2018-03-18T02:44:09.725Z,16.40
2018-03-18T02:44:41.487Z,16.40
2018-03-18T02:45:13.219Z,16.40
2018-03-18T02:45:44.914Z,16.30
2018-03-18T02:46:17.423Z,16.30
2018-03-18T02:46:49.146Z,16.30
2018-03-18T02:47:20.902Z,16.40
2018-03-18T02:47:52.616Z,16.40
2018-03-18T02:48:25.117Z,16.40
2018-03-18T02:48:56.835Z,16.50
2018-03-18T02:49:28.565Z,16.40
2018-03-18T02:50:01.102Z,16.40
2018-03-18T02:50:32.822Z,16.40
2018-03-18T02:51:04.553Z,16.40
2018-03-18T02:51:36.302Z,16.40
2018-03-18T02:52:08.013Z,16.40
2018-03-18T02:52:39.755Z,16.40
2018-03-18T02:53:12.260Z,16.40
2018-03-18T02:53:43.993Z,16.40
2018-03-18T02:54:15.713Z,16.40
2018-03-18T02:54:47.443Z,16.40
2018-03-18T02:55:19.961Z,16.40
2018-03-18T02:55:51.727Z,16.30
2018-03-18T02:56:23.449Z,16.40
2018-03-18T02:56:55.179Z,16.40
2018-03-18T02:57:26.904Z,16.40
2018-03-18T02:57:58.628Z,16.40
2018-03-18T02:58:31.195Z,16.40
2018-03-18T02:59:03.684Z,16.30
2018-03-18T02:59:35.399Z,16.40
2018-03-18T03:00:07.920Z,16.30
2018-03-18T03:00:39.640Z,16.30
2018-03-18T03:01:11.369Z,16.30
2018-03-18T03:01:43.095Z,16.30
2018-03-18T03:02:15.593Z,16.30
2018-03-18T03:02:47.347Z,16.30
2018-03-18T03:03:19.123Z,16.30
2018-03-18T03:03:51.548Z,16.30
2018-03-18T03:04:23.267Z,16.30
2018-03-18T03:04:54.993Z,16.30
2018-03-18T03:05:27.476Z,16.30
2018-03-18T03:05:59.261Z,16.30
2018-03-18T03:06:30.983Z,16.30
2018-03-18T03:07:02.742Z,16.30
2018-03-18T03:07:34.500Z,16.30
2018-03-18T03:08:06.274Z,16.30
2018-03-18T03:08:38.002Z,16.30
2018-03-18T03:09:09.745Z,16.30
2018-03-18T03:09:41.463Z,16.30
2018-03-18T03:10:13.180Z,16.30
2018-03-18T03:10:44.919Z,16.30
2018-03-18T03:11:16.647Z,16.30
2018-03-18T03:11:49.136Z,16.30
2018-03-18T03:12:20.867Z,16.30
2018-03-18T03:12:52.598Z,16.30
2018-03-18T03:13:25.118Z,16.30
2018-03-18T03:13:56.831Z,16.30
2018-03-18T03:14:28.552Z,16.30
2018-03-18T03:15:00.275Z,16.30
2018-03-18T03:15:31.989Z,16.30
2018-03-18T03:16:03.720Z,16.30
2018-03-18T03:16:35.460Z,16.30
2018-03-18T03:17:07.190Z,16.30
2018-03-18T03:17:38.911Z,16.30
2018-03-18T03:18:11.399Z,16.30
2018-03-18T03:18:43.162Z,16.30
2018-03-18T03:19:14.889Z,16.30
2018-03-18T03:19:46.643Z,16.30
2018-03-18T03:20:18.368Z,16.30
2018-03-18T03:20:50.098Z,16.30
2018-03-18T03:21:21.840Z,16.30
2018-03-18T03:21:54.333Z,16.30
2018-03-18T03:22:26.056Z,16.30
2018-03-18T03:22:57.792Z,16.30
2018-03-18T03:23:29.525Z,16.30
2018-03-18T03:24:02.034Z,16.30
2018-03-18T03:24:33.747Z,16.30
2018-03-18T03:25:05.463Z,16.30
2018-03-18T03:25:37.959Z,16.30
2018-03-18T03:26:09.693Z,16.30
2018-03-18T03:26:42.189Z,16.30
2018-03-18T03:27:13.900Z,16.30
2018-03-18T03:27:45.637Z,16.30
2018-03-18T03:28:18.132Z,16.30
2018-03-18T03:28:49.878Z,16.30
2018-03-18T03:29:21.622Z,16.30
2018-03-18T03:29:53.368Z,16.30
2018-03-18T03:30:25.080Z,16.30
2018-03-18T03:30:56.804Z,16.30
2018-03-18T03:31:29.318Z,16.30
2018-03-18T03:32:01.055Z,16.20
2018-03-18T03:32:32.789Z,16.30
2018-03-18T03:33:04.540Z,16.30
2018-03-18T03:33:36.260Z,16.30
2018-03-18T03:34:08.779Z,16.30
2018-03-18T03:34:40.481Z,16.30
2018-03-18T03:35:12.254Z,16.30
2018-03-18T03:35:43.969Z,16.30
2018-03-18T03:36:16.445Z,16.30
2018-03-18T03:36:48.176Z,16.30
2018-03-18T03:37:19.915Z,16.30
2018-03-18T03:37:52.440Z,16.30
2018-03-18T03:38:24.193Z,16.30
2018-03-18T03:38:55.913Z,16.30
2018-03-18T03:39:27.652Z,16.30
2018-03-18T03:39:59.375Z,16.30
2018-03-18T03:40:31.084Z,16.30
2018-03-18T03:41:02.860Z,16.30
2018-03-18T03:41:35.366Z,16.30
2018-03-18T03:42:07.096Z,16.30
2018-03-18T03:42:38.840Z,16.70
2018-03-18T03:43:10.575Z,16.30
2018-03-18T03:43:42.340Z,16.30
2018-03-18T03:44:14.049Z,16.30
2018-03-18T03:44:46.545Z,16.30
2018-03-18T03:45:18.276Z,16.30
2018-03-18T03:45:50.001Z,16.30
2018-03-18T03:46:22.542Z,16.30
2018-03-18T03:46:54.241Z,16.30
2018-03-18T03:47:25.972Z,16.30
2018-03-18T03:47:57.696Z,16.30
2018-03-18T03:48:30.213Z,16.30
2018-03-18T03:49:01.959Z,16.30
2018-03-18T03:49:33.661Z,16.30
2018-03-18T03:50:05.387Z,16.30
2018-03-18T03:50:37.931Z,16.30
2018-03-18T03:51:09.654Z,16.30
2018-03-18T03:51:41.869Z,16.30
2018-03-18T03:52:14.355Z,16.30
2018-03-18T03:52:46.077Z,16.30
2018-03-18T03:53:17.812Z,16.30
2018-03-18T03:53:49.551Z,16.30
2018-03-18T03:54:21.342Z,16.30
2018-03-18T03:54:53.096Z,16.30
2018-03-18T03:55:24.821Z,16.30
2018-03-18T03:55:56.532Z,16.30
2018-03-18T03:56:28.269Z,16.30
2018-03-18T03:57:00.747Z,16.30
2018-03-18T03:57:32.480Z,16.30
2018-03-18T03:58:05.018Z,16.30
2018-03-18T03:58:36.735Z,16.30
2018-03-18T03:59:08.481Z,16.30
2018-03-18T03:59:40.202Z,16.30
2018-03-18T04:00:11.926Z,16.30
2018-03-18T04:00:43.704Z,16.30
2018-03-18T04:01:15.409Z,16.30
2018-03-18T04:01:47.136Z,16.40
2018-03-18T04:02:19.631Z,16.30
2018-03-18T04:02:51.362Z,16.30
2018-03-18T04:03:23.088Z,16.30
2018-03-18T04:03:55.575Z,16.30
2018-03-18T04:04:27.304Z,16.30
2018-03-18T04:04:59.795Z,16.30
2018-03-18T04:05:31.515Z,16.30
2018-03-18T04:06:03.244Z,16.30
2018-03-18T04:06:35.728Z,16.20
2018-03-18T04:07:07.452Z,16.20
2018-03-18T04:07:39.953Z,16.30
2018-03-18T04:08:11.690Z,16.20
2018-03-18T04:08:43.412Z,16.20
2018-03-18T04:09:15.155Z,16.30
2018-03-18T04:09:46.876Z,16.20
2018-03-18T04:10:18.605Z,16.30
2018-03-18T04:10:50.346Z,16.30
2018-03-18T04:11:22.062Z,16.20
2018-03-18T04:11:53.780Z,16.30
2018-03-18T04:12:25.518Z,16.30
2018-03-18T04:12:58.014Z,16.30
2018-03-18T04:13:29.724Z,16.20
2018-03-18T04:14:01.470Z,16.20
2018-03-18T04:14:33.968Z,16.30
2018-03-18T04:15:05.676Z,16.20
2018-03-18T04:15:38.152Z,16.20
2018-03-18T04:16:09.962Z,16.20
2018-03-18T04:16:41.684Z,16.30
2018-03-18T04:17:13.406Z,16.30
2018-03-18T04:17:45.130Z,16.30
2018-03-18T04:18:16.920Z,16.30
2018-03-18T04:18:48.608Z,16.30
2018-03-18T04:19:20.344Z,16.30
2018-03-18T04:19:52.088Z,16.30
2018-03-18T04:20:24.583Z,16.30
2018-03-18T04:20:56.370Z,16.20
2018-03-18T04:21:28.109Z,16.30
2018-03-18T04:21:59.821Z,16.30
2018-03-18T04:22:31.548Z,16.30
2018-03-18T04:23:03.278Z,16.20
2018-03-18T04:23:34.995Z,16.30
2018-03-18T04:24:06.716Z,16.30
2018-03-18T04:24:38.445Z,16.20
2018-03-18T04:25:10.188Z,16.20
2018-03-18T04:25:41.908Z,16.20
2018-03-18T04:26:13.633Z,16.30
2018-03-18T04:26:46.121Z,16.30
2018-03-18T04:27:17.853Z,16.30
2018-03-18T04:27:49.582Z,16.30
2018-03-18T04:28:22.094Z,16.30
2018-03-18T04:28:53.821Z,16.20
2018-03-18T04:29:25.538Z,16.30
2018-03-18T04:29:58.032Z,16.30
2018-03-18T04:30:29.777Z,16.20
2018-03-18T04:31:01.489Z,16.20
2018-03-18T04:31:33.227Z,16.20
2018-03-18T04:32:04.957Z,16.20
2018-03-18T04:32:36.684Z,16.20
2018-03-18T04:33:08.421Z,16.20
2018-03-18T04:33:40.172Z,16.20
2018-03-18T04:34:11.906Z,16.20
2018-03-18T04:34:43.632Z,16.20
2018-03-18T04:35:15.348Z,16.20
2018-03-18T04:35:47.099Z,16.20
2018-03-18T04:36:18.828Z,16.30
2018-03-18T04:36:51.320Z,16.20
2018-03-18T04:37:23.031Z,16.20
2018-03-18T04:37:55.530Z,16.20
2018-03-18T04:38:27.247Z,16.20
2018-03-18T04:38:58.971Z,16.20
2018-03-18T04:39:31.456Z,16.20
2018-03-18T04:40:03.184Z,16.20
2018-03-18T04:40:35.687Z,16.20
2018-03-18T04:41:07.468Z,16.20
2018-03-18T04:41:39.172Z,16.20
2018-03-18T04:42:10.910Z,16.20
2018-03-18T04:42:42.686Z,16.20
2018-03-18T04:43:14.464Z,16.20
2018-03-18T04:43:46.940Z,16.20
2018-03-18T04:44:18.672Z,16.20
2018-03-18T04:44:51.169Z,16.20
2018-03-18T04:45:22.893Z,16.20
2018-03-18T04:45:54.623Z,16.20
2018-03-18T04:46:27.124Z,16.20
2018-03-18T04:46:58.833Z,16.20
2018-03-18T04:47:30.586Z,16.10
2018-03-18T04:48:02.375Z,16.20
2018-03-18T04:48:34.071Z,16.20
2018-03-18T04:49:05.848Z,16.20
2018-03-18T04:49:37.546Z,16.20
2018-03-18T04:50:10.024Z,16.20
2018-03-18T04:50:41.795Z,16.20
2018-03-18T04:51:14.241Z,16.20
2018-03-18T04:51:45.972Z,16.20
2018-03-18T04:52:17.717Z,16.20
2018-03-18T04:52:49.455Z,16.20
2018-03-18T04:53:21.253Z,16.20
2018-03-18T04:53:52.967Z,16.20
2018-03-18T04:54:24.705Z,16.20
2018-03-18T04:54:56.458Z,16.20
2018-03-18T04:55:28.197Z,16.20
2018-03-18T04:55:59.941Z,16.20
2018-03-18T04:56:31.677Z,16.20
2018-03-18T04:57:03.419Z,16.20
2018-03-18T04:57:35.152Z,16.20
2018-03-18T04:58:06.877Z,16.20
2018-03-18T04:58:38.600Z,16.20
2018-03-18T04:59:10.329Z,16.20
2018-03-18T04:59:42.049Z,16.20
2018-03-18T05:00:13.766Z,16.20
2018-03-18T05:00:46.253Z,16.20
2018-03-18T05:01:17.985Z,16.20
2018-03-18T05:01:50.462Z,16.20
2018-03-18T05:02:22.202Z,16.10
2018-03-18T05:02:53.936Z,16.20
2018-03-18T05:03:25.670Z,16.20
2018-03-18T05:03:58.141Z,16.20
2018-03-18T05:04:29.870Z,16.20
2018-03-18T05:05:02.425Z,16.20
2018-03-18T05:05:34.938Z,16.10
2018-03-18T05:06:06.659Z,16.10
2018-03-18T05:06:38.389Z,16.20
2018-03-18T05:07:10.888Z,16.20
2018-03-18T05:07:42.625Z,16.10
2018-03-18T05:08:14.348Z,16.20
2018-03-18T05:08:46.062Z,16.20
2018-03-18T05:09:17.789Z,16.20
2018-03-18T05:09:49.521Z,16.20
2018-03-18T05:10:21.267Z,16.20
2018-03-18T05:10:53.001Z,16.20
2018-03-18T05:11:24.712Z,16.20
2018-03-18T05:11:56.432Z,16.20
2018-03-18T05:12:28.915Z,16.20
2018-03-18T05:13:00.652Z,16.20
2018-03-18T05:13:33.175Z,16.20
2018-03-18T05:14:04.899Z,16.20
2018-03-18T05:14:36.625Z,16.20
2018-03-18T05:15:08.358Z,16.20
2018-03-18T05:15:40.076Z,16.20
2018-03-18T05:16:12.592Z,16.20
2018-03-18T05:16:44.333Z,16.20
2018-03-18T05:17:16.123Z,16.20
2018-03-18T05:17:47.877Z,16.20
2018-03-18T05:18:20.368Z,16.20
2018-03-18T05:18:52.102Z,16.20
2018-03-18T05:19:23.830Z,16.20
2018-03-18T05:19:56.320Z,16.20
2018-03-18T05:20:28.060Z,16.20
2018-03-18T05:20:59.802Z,16.20
2018-03-18T05:21:31.584Z,16.20
2018-03-18T05:22:03.341Z,16.20
2018-03-18T05:22:35.084Z,16.20
2018-03-18T05:23:06.804Z,16.20
2018-03-18T05:23:38.531Z,16.20
2018-03-18T05:24:10.258Z,16.20
2018-03-18T05:24:42.804Z,16.20
2018-03-18T05:25:14.569Z,16.20
2018-03-18T05:25:47.069Z,16.20
2018-03-18T05:26:18.801Z,16.20
2018-03-18T05:26:50.528Z,16.20
2018-03-18T05:27:22.263Z,16.20
2018-03-18T05:27:54.736Z,16.20
2018-03-18T05:28:26.468Z,16.10
2018-03-18T05:28:58.203Z,16.20
2018-03-18T05:29:30.700Z,16.20
2018-03-18T05:30:02.473Z,16.20
2018-03-18T05:30:34.203Z,16.20
2018-03-18T05:31:05.924Z,16.20
2018-03-18T05:31:37.637Z,16.20
2018-03-18T05:32:10.189Z,16.20
2018-03-18T05:32:41.906Z,16.10
2018-03-18T05:33:13.629Z,16.20
2018-03-18T05:33:45.363Z,16.10
2018-03-18T05:34:17.119Z,16.10
2018-03-18T05:34:48.861Z,16.10
2018-03-18T05:35:20.584Z,16.10
2018-03-18T05:35:52.334Z,16.10
2018-03-18T05:36:24.074Z,16.10
2018-03-18T05:36:56.556Z,16.10
2018-03-18T05:37:28.303Z,16.10
2018-03-18T05:38:00.036Z,16.10
2018-03-18T05:38:31.758Z,16.10
2018-03-18T05:39:04.257Z,16.20
2018-03-18T05:39:35.980Z,16.10
2018-03-18T05:40:07.711Z,16.10
2018-03-18T05:40:40.202Z,16.10
2018-03-18T05:41:11.924Z,16.10
2018-03-18T05:41:43.651Z,16.20
2018-03-18T05:42:16.174Z,16.20
2018-03-18T05:42:47.961Z,16.10
2018-03-18T05:43:20.443Z,16.20
2018-03-18T05:43:52.165Z,16.10
2018-03-18T05:44:24.667Z,16.20
2018-03-18T05:44:56.392Z,16.20
2018-03-18T05:45:28.173Z,16.10
2018-03-18T05:45:59.882Z,16.10
2018-03-18T05:46:31.608Z,16.10
2018-03-18T05:47:04.107Z,16.10
2018-03-18T05:47:35.827Z,16.10
2018-03-18T05:48:07.545Z,16.10
2018-03-18T05:48:40.031Z,16.10
2018-03-18T05:49:11.770Z,16.10
2018-03-18T05:49:44.301Z,16.10
2018-03-18T05:50:16.086Z,16.10
2018-03-18T05:50:48.554Z,16.10
2018-03-18T05:51:20.273Z,16.10
2018-03-18T05:51:52.819Z,16.10
2018-03-18T05:52:24.553Z,16.10
2018-03-18T05:52:57.174Z,16.10
2018-03-18T05:53:28.903Z,16.00
2018-03-18T05:54:01.387Z,16.10
2018-03-18T05:54:33.148Z,16.10
2018-03-18T05:55:04.875Z,16.10
2018-03-18T05:55:36.613Z,16.10
2018-03-18T05:56:08.348Z,16.10
2018-03-18T05:56:40.082Z,16.10
2018-03-18T05:57:12.565Z,16.10
2018-03-18T05:57:44.315Z,16.10
2018-03-18T05:58:16.044Z,16.10
2018-03-18T05:58:47.788Z,16.10
2018-03-18T05:59:19.569Z,16.20
2018-03-18T05:59:52.006Z,16.10
2018-03-18T06:00:23.750Z,16.10
2018-03-18T06:00:55.475Z,16.20
2018-03-18T06:01:27.279Z,16.10
2018-03-18T06:01:59.013Z,16.10
2018-03-18T06:02:30.743Z,16.20
2018-03-18T06:03:02.493Z,16.10
2018-03-18T06:03:34.219Z,16.10
2018-03-18T06:04:05.980Z,16.10
2018-03-18T06:04:37.682Z,16.10
2018-03-18T06:05:09.415Z,16.10
2018-03-18T06:05:41.919Z,16.10
2018-03-18T06:06:13.626Z,16.10
2018-03-18T06:06:46.108Z,16.10
2018-03-18T06:07:17.866Z,16.10
2018-03-18T06:07:50.340Z,16.10
2018-03-18T06:08:22.073Z,16.10
2018-03-18T06:08:53.789Z,16.10
2018-03-18T06:09:25.549Z,16.10
2018-03-18T06:09:58.048Z,16.10
2018-03-18T06:10:29.787Z,16.10
2018-03-18T06:11:01.505Z,16.10
2018-03-18T06:11:33.244Z,16.10
2018-03-18T06:12:04.969Z,16.10
2018-03-18T06:12:37.459Z,16.10
2018-03-18T06:13:09.202Z,16.10
2018-03-18T06:13:40.947Z,16.10
2018-03-18T06:14:12.684Z,16.10
2018-03-18T06:14:44.411Z,16.10
2018-03-18T06:15:16.145Z,16.10
2018-03-18T06:15:48.641Z,16.10
2018-03-18T06:16:20.381Z,16.10
2018-03-18T06:16:52.103Z,16.10
2018-03-18T06:17:23.822Z,16.10
2018-03-18T06:17:55.581Z,16.10
2018-03-18T06:18:27.287Z,16.10
2018-03-18T06:18:59.037Z,16.10
2018-03-18T06:19:30.787Z,16.10
2018-03-18T06:20:02.605Z,16.10
2018-03-18T06:20:34.249Z,16.10
2018-03-18T06:21:05.987Z,16.10
2018-03-18T06:21:37.733Z,16.10
2018-03-18T06:22:09.469Z,16.10
2018-03-18T06:22:41.200Z,16.10
2018-03-18T06:23:12.941Z,16.10
2018-03-18T06:23:44.666Z,16.10
2018-03-18T06:24:17.152Z,16.10
2018-03-18T06:24:48.886Z,16.10
2018-03-18T06:25:20.614Z,16.10
2018-03-18T06:25:53.136Z,16.10
2018-03-18T06:26:24.851Z,16.10
2018-03-18T06:26:56.600Z,16.20
2018-03-18T06:27:28.328Z,16.10
2018-03-18T06:28:00.053Z,16.10
2018-03-18T06:28:32.554Z,16.10
2018-03-18T06:29:04.287Z,16.10
2018-03-18T06:29:36.028Z,16.20
2018-03-18T06:30:08.503Z,16.10
2018-03-18T06:30:40.251Z,16.10
2018-03-18T06:31:11.979Z,16.20
2018-03-18T06:31:43.703Z,16.10
2018-03-18T06:32:16.190Z,16.10
2018-03-18T06:32:47.926Z,16.10
2018-03-18T06:33:19.681Z,16.10
2018-03-18T06:33:51.401Z,16.10
2018-03-18T06:34:23.893Z,16.10
2018-03-18T06:34:55.610Z,16.10
2018-03-18T06:35:27.347Z,16.10
2018-03-18T06:35:59.842Z,16.10
2018-03-18T06:36:31.570Z,16.10
2018-03-18T06:37:03.301Z,16.10
2018-03-18T06:37:35.848Z,16.10
2018-03-18T06:38:07.582Z,16.10
2018-03-18T06:38:39.371Z,16.10
2018-03-18T06:39:11.083Z,16.10
2018-03-18T06:39:43.570Z,16.10
2018-03-18T06:40:15.321Z,16.10
2018-03-18T06:40:47.023Z,15.70
2018-03-18T06:41:18.757Z,16.10
2018-03-18T06:41:50.488Z,16.10
2018-03-18T06:42:22.211Z,16.00
2018-03-18T06:42:53.949Z,16.10
2018-03-18T06:43:25.683Z,16.10
2018-03-18T06:43:57.402Z,16.10
2018-03-18T06:44:29.903Z,16.10
2018-03-18T06:45:01.657Z,16.10
2018-03-18T06:45:33.383Z,16.00
2018-03-18T06:46:05.107Z,16.10
2018-03-18T06:46:36.840Z,16.10
2018-03-18T06:47:09.338Z,16.10
2018-03-18T06:47:41.106Z,16.10
2018-03-18T06:48:12.797Z,16.10
2018-03-18T06:48:44.537Z,16.10
2018-03-18T06:49:17.036Z,16.10
2018-03-18T06:49:48.773Z,16.10
2018-03-18T06:50:20.505Z,16.10